| Date | Time | Temp. (oF) | Dew Point (oF) | Rel. Hum. (%) | Press. (in.) | Wind Dir. | Wind Speed (mph) | Hourly Rainfall (in.) |
|
|---|---|---|---|---|---|---|---|---|---|
| 1 | 03/10 | 00:00 | 62 | 57 | 85 | 29.84 | SSE | 21 | 0.00 |
| 2 | 03/09 | 23:00 | 62 | 57 | 84 | 29.88 | S | 16 | 0.03 |
| 3 | 03/09 | 22:00 | 62 | 56 | 82 | 29.93 | S | 27 | 0.00 |
| 4 | 03/09 | 21:00 | 62 | 56 | 82 | 29.94 | SSW | 21 | 0.00 |
| 5 | 03/09 | 20:00 | 62 | 57 | 86 | 30.00 | S | 17 | 0.00 |
| 6 | 03/09 | 19:00 | 61 | 58 | 93 | 30.06 | SSE | 11 | 0.02 |
| 7 | 03/09 | 18:00 | 61 | 59 | 94 | 30.07 | S | 16 | 0.00 |
| 8 | 03/09 | 17:00 | 63 | 59 | 88 | 30.10 | S | 17 | 0.00 |
| 9 | 03/09 | 16:00 | 66 | 58 | 76 | 30.12 | SSE | 16 | 0.00 |
| 10 | 03/09 | 15:00 | 68 | 57 | 68 | 30.14 | S | 16 | 0.00 |
| 11 | 03/09 | 14:00 | 68 | 57 | 69 | 30.19 | S | 20 | 0.00 |
| 12 | 03/09 | 13:00 | 66 | 58 | 78 | 30.25 | SSE | 11 | 0.00 |
| 13 | 03/09 | 12:00 | 62 | 58 | 89 | 30.30 | S | 12 | 0.00 |
| 14 | 03/09 | 11:00 | 60 | 57 | 91 | 30.33 | SSW | 11 | 0.00 |
| 15 | 03/09 | 10:00 | 57 | 56 | 99 | 30.36 | S | 12 | 0.00 |
| 16 | 03/09 | 09:00 | 55 | 54 | 100 | 30.38 | S | 5 | 0.00 |
| 17 | 03/09 | 08:00 | 54 | 54 | 100 | 30.40 | S | 8 | 0.00 |
| 18 | 03/09 | 07:00 | 54 | 54 | 100 | 30.40 | SSW | 4 | 0.00 |
| 19 | 03/09 | 06:00 | 54 | 54 | 100 | 30.39 | S | 6 | 0.00 |
| 20 | 03/09 | 05:00 | 54 | 54 | 100 | 30.39 | S | 4 | 0.00 |
| 21 | 03/09 | 04:00 | 54 | 54 | 100 | 30.40 | S | 6 | 0.00 |
| 22 | 03/09 | 03:00 | 54 | 54 | 100 | 30.40 | S | 4 | 0.00 |
| 23 | 03/09 | 02:00 | 54 | 53 | 97 | 30.41 | SSE | 20 | 0.00 |
| 24 | 03/09 | 01:00 | 55 | 53 | 95 | 30.41 | S | 12 | 0.00 |